sensor_id;sensor_type;location;lat;lon;timestamp;temperature;humidity
19847;DHT22;10084;50.518;8.588;2023-04-22T00:00:18;10.30;79.50
19847;DHT22;10084;50.518;8.588;2023-04-22T00:02:44;10.30;79.60
19847;DHT22;10084;50.518;8.588;2023-04-22T00:05:11;10.30;79.60
19847;DHT22;10084;50.518;8.588;2023-04-22T00:07:39;10.30;79.70
19847;DHT22;10084;50.518;8.588;2023-04-22T00:10:06;10.30;79.80
19847;DHT22;10084;50.518;8.588;2023-04-22T00:12:32;10.30;79.80
19847;DHT22;10084;50.518;8.588;2023-04-22T00:14:59;10.40;80.60
19847;DHT22;10084;50.518;8.588;2023-04-22T00:17:25;10.40;80.00
19847;DHT22;10084;50.518;8.588;2023-04-22T00:19:50;10.40;80.00
19847;DHT22;10084;50.518;8.588;2023-04-22T00:22:17;10.40;80.10
19847;DHT22;10084;50.518;8.588;2023-04-22T00:24:43;10.40;80.10
19847;DHT22;10084;50.518;8.588;2023-04-22T00:27:09;10.50;80.20
19847;DHT22;10084;50.518;8.588;2023-04-22T00:29:35;10.40;80.10
19847;DHT22;10084;50.518;8.588;2023-04-22T00:32:00;10.50;80.20
19847;DHT22;10084;50.518;8.588;2023-04-22T00:34:26;10.50;80.20
19847;DHT22;10084;50.518;8.588;2023-04-22T00:36:52;10.50;80.20
19847;DHT22;10084;50.518;8.588;2023-04-22T00:39:17;10.50;80.30
19847;DHT22;10084;50.518;8.588;2023-04-22T00:41:43;10.50;80.20
19847;DHT22;10084;50.518;8.588;2023-04-22T00:44:09;10.50;80.30
19847;DHT22;10084;50.518;8.588;2023-04-22T00:46:37;10.50;80.20
19847;DHT22;10084;50.518;8.588;2023-04-22T00:49:04;10.50;80.30
19847;DHT22;10084;50.518;8.588;2023-04-22T00:51:30;10.50;80.30
19847;DHT22;10084;50.518;8.588;2023-04-22T00:53:56;10.40;80.30
19847;DHT22;10084;50.518;8.588;2023-04-22T00:56:24;10.40;80.40
19847;DHT22;10084;50.518;8.588;2023-04-22T00:58:53;10.40;80.50
19847;DHT22;10084;50.518;8.588;2023-04-22T01:01:19;10.40;80.50
19847;DHT22;10084;50.518;8.588;2023-04-22T01:03:45;10.50;80.60
19847;DHT22;10084;50.518;8.588;2023-04-22T01:06:12;10.50;80.60
19847;DHT22;10084;50.518;8.588;2023-04-22T01:08:39;10.40;80.50
19847;DHT22;10084;50.518;8.588;2023-04-22T01:11:05;10.40;80.50
19847;DHT22;10084;50.518;8.588;2023-04-22T01:13:31;10.40;80.60
19847;DHT22;10084;50.518;8.588;2023-04-22T01:15:57;10.40;80.70
19847;DHT22;10084;50.518;8.588;2023-04-22T01:18:25;10.40;80.60
19847;DHT22;10084;50.518;8.588;2023-04-22T01:20:51;10.40;80.80
19847;DHT22;10084;50.518;8.588;2023-04-22T01:23:21;10.40;80.80
19847;DHT22;10084;50.518;8.588;2023-04-22T01:25:47;10.40;80.80
19847;DHT22;10084;50.518;8.588;2023-04-22T01:28:14;10.40;80.80
19847;DHT22;10084;50.518;8.588;2023-04-22T01:30:41;10.40;80.90
19847;DHT22;10084;50.518;8.588;2023-04-22T01:33:09;10.50;81.00
19847;DHT22;10084;50.518;8.588;2023-04-22T01:35:36;10.50;81.00
19847;DHT22;10084;50.518;8.588;2023-04-22T01:38:06;10.50;81.00
19847;DHT22;10084;50.518;8.588;2023-04-22T01:40:33;10.50;81.00
19847;DHT22;10084;50.518;8.588;2023-04-22T01:42:59;10.50;81.00
19847;DHT22;10084;50.518;8.588;2023-04-22T01:45:26;10.50;81.00
19847;DHT22;10084;50.518;8.588;2023-04-22T01:47:53;10.50;81.00
19847;DHT22;10084;50.518;8.588;2023-04-22T01:50:20;10.50;81.10
19847;DHT22;10084;50.518;8.588;2023-04-22T01:52:46;10.50;81.10
19847;DHT22;10084;50.518;8.588;2023-04-22T01:55:12;10.50;81.10
19847;DHT22;10084;50.518;8.588;2023-04-22T01:57:37;10.50;81.30
19847;DHT22;10084;50.518;8.588;2023-04-22T02:00:05;10.50;81.30
19847;DHT22;10084;50.518;8.588;2023-04-22T02:02:38;10.40;81.30
19847;DHT22;10084;50.518;8.588;2023-04-22T02:05:05;10.40;81.30
19847;DHT22;10084;50.518;8.588;2023-04-22T02:07:31;10.40;81.40
19847;DHT22;10084;50.518;8.588;2023-04-22T02:09:57;10.40;81.40
19847;DHT22;10084;50.518;8.588;2023-04-22T02:12:22;10.40;81.50
19847;DHT22;10084;50.518;8.588;2023-04-22T02:14:48;10.40;81.60
19847;DHT22;10084;50.518;8.588;2023-04-22T02:17:14;10.40;81.60
19847;DHT22;10084;50.518;8.588;2023-04-22T02:19:42;10.40;81.60
19847;DHT22;10084;50.518;8.588;2023-04-22T02:22:09;10.40;81.70
19847;DHT22;10084;50.518;8.588;2023-04-22T02:24:35;10.40;81.80
19847;DHT22;10084;50.518;8.588;2023-04-22T02:27:01;10.40;81.90
19847;DHT22;10084;50.518;8.588;2023-04-22T02:29:27;10.40;81.90
19847;DHT22;10084;50.518;8.588;2023-04-22T02:31:57;10.40;82.00
19847;DHT22;10084;50.518;8.588;2023-04-22T02:34:23;10.40;82.00
19847;DHT22;10084;50.518;8.588;2023-04-22T02:36:48;10.40;82.00
19847;DHT22;10084;50.518;8.588;2023-04-22T02:39:14;10.40;82.10
19847;DHT22;10084;50.518;8.588;2023-04-22T02:41:40;10.40;82.10
19847;DHT22;10084;50.518;8.588;2023-04-22T02:44:06;10.40;82.10
19847;DHT22;10084;50.518;8.588;2023-04-22T02:46:31;10.40;82.10
19847;DHT22;10084;50.518;8.588;2023-04-22T02:48:57;10.40;82.20
19847;DHT22;10084;50.518;8.588;2023-04-22T02:51:23;10.40;82.10
19847;DHT22;10084;50.518;8.588;2023-04-22T02:53:48;10.40;82.10
19847;DHT22;10084;50.518;8.588;2023-04-22T02:56:14;10.40;82.10
19847;DHT22;10084;50.518;8.588;2023-04-22T02:58:40;10.40;82.20
19847;DHT22;10084;50.518;8.588;2023-04-22T03:01:06;10.30;82.90
19847;DHT22;10084;50.518;8.588;2023-04-22T03:03:31;10.30;82.30
19847;DHT22;10084;50.518;8.588;2023-04-22T03:05:57;10.30;82.30
19847;DHT22;10084;50.518;8.588;2023-04-22T03:08:24;10.30;82.50
19847;DHT22;10084;50.518;8.588;2023-04-22T03:10:50;10.20;82.60
19847;DHT22;10084;50.518;8.588;2023-04-22T03:13:16;10.30;82.80
19847;DHT22;10084;50.518;8.588;2023-04-22T03:15:42;10.30;82.80
19847;DHT22;10084;50.518;8.588;2023-04-22T03:18:08;10.20;82.80
19847;DHT22;10084;50.518;8.588;2023-04-22T03:20:34;10.20;82.80
19847;DHT22;10084;50.518;8.588;2023-04-22T03:23:00;10.20;82.90
19847;DHT22;10084;50.518;8.588;2023-04-22T03:25:27;10.20;82.90
19847;DHT22;10084;50.518;8.588;2023-04-22T03:27:54;10.20;82.90
19847;DHT22;10084;50.518;8.588;2023-04-22T03:30:20;10.20;82.90
19847;DHT22;10084;50.518;8.588;2023-04-22T03:32:46;10.20;83.00
19847;DHT22;10084;50.518;8.588;2023-04-22T03:35:21;10.20;83.10
19847;DHT22;10084;50.518;8.588;2023-04-22T03:37:49;10.20;83.10
19847;DHT22;10084;50.518;8.588;2023-04-22T03:40:20;10.10;83.10
19847;DHT22;10084;50.518;8.588;2023-04-22T03:42:47;10.10;83.10
19847;DHT22;10084;50.518;8.588;2023-04-22T03:45:13;10.10;83.10
19847;DHT22;10084;50.518;8.588;2023-04-22T03:47:44;10.00;83.10
19847;DHT22;10084;50.518;8.588;2023-04-22T03:50:19;10.00;83.30
19847;DHT22;10084;50.518;8.588;2023-04-22T03:52:46;9.90;83.40
19847;DHT22;10084;50.518;8.588;2023-04-22T03:55:13;9.90;83.60
19847;DHT22;10084;50.518;8.588;2023-04-22T03:57:38;9.90;83.80
19847;DHT22;10084;50.518;8.588;2023-04-22T04:00:05;9.90;84.00
19847;DHT22;10084;50.518;8.588;2023-04-22T04:02:40;9.90;84.10
19847;DHT22;10084;50.518;8.588;2023-04-22T04:05:07;9.90;84.70
19847;DHT22;10084;50.518;8.588;2023-04-22T04:07:35;9.90;84.10
19847;DHT22;10084;50.518;8.588;2023-04-22T04:10:01;9.80;84.10
19847;DHT22;10084;50.518;8.588;2023-04-22T04:12:27;9.80;84.10
19847;DHT22;10084;50.518;8.588;2023-04-22T04:14:53;9.80;84.20
19847;DHT22;10084;50.518;8.588;2023-04-22T04:17:20;9.80;84.30
19847;DHT22;10084;50.518;8.588;2023-04-22T04:19:51;9.80;84.40
19847;DHT22;10084;50.518;8.588;2023-04-22T04:22:17;9.70;84.40
19847;DHT22;10084;50.518;8.588;2023-04-22T04:24:50;9.70;84.50
19847;DHT22;10084;50.518;8.588;2023-04-22T04:27:21;9.70;84.70
19847;DHT22;10084;50.518;8.588;2023-04-22T04:29:51;9.70;84.70
19847;DHT22;10084;50.518;8.588;2023-04-22T04:32:28;9.70;84.80
19847;DHT22;10084;50.518;8.588;2023-04-22T04:34:56;9.70;84.90
19847;DHT22;10084;50.518;8.588;2023-04-22T04:37:23;9.60;85.10
19847;DHT22;10084;50.518;8.588;2023-04-22T04:39:57;9.70;85.20
19847;DHT22;10084;50.518;8.588;2023-04-22T04:42:35;9.70;85.30
19847;DHT22;10084;50.518;8.588;2023-04-22T04:45:05;9.70;85.20
19847;DHT22;10084;50.518;8.588;2023-04-22T04:47:32;9.70;85.20
19847;DHT22;10084;50.518;8.588;2023-04-22T04:50:07;9.70;85.10
19847;DHT22;10084;50.518;8.588;2023-04-22T04:52:33;9.70;84.70
19847;DHT22;10084;50.518;8.588;2023-04-22T04:55:00;9.60;84.70
19847;DHT22;10084;50.518;8.588;2023-04-22T04:57:26;9.60;84.90
19847;DHT22;10084;50.518;8.588;2023-04-22T04:59:52;9.60;85.10
19847;DHT22;10084;50.518;8.588;2023-04-22T05:02:19;9.60;85.30
19847;DHT22;10084;50.518;8.588;2023-04-22T05:04:45;9.60;85.50
19847;DHT22;10084;50.518;8.588;2023-04-22T05:07:11;9.60;85.60
19847;DHT22;10084;50.518;8.588;2023-04-22T05:09:38;9.60;85.70
19847;DHT22;10084;50.518;8.588;2023-04-22T05:12:05;9.60;85.80
19847;DHT22;10084;50.518;8.588;2023-04-22T05:14:30;9.70;85.90
19847;DHT22;10084;50.518;8.588;2023-04-22T05:16:56;9.70;85.90
19847;DHT22;10084;50.518;8.588;2023-04-22T05:19:22;9.70;86.10
19847;DHT22;10084;50.518;8.588;2023-04-22T05:21:50;9.70;86.10
19847;DHT22;10084;50.518;8.588;2023-04-22T05:24:17;9.80;86.20
19847;DHT22;10084;50.518;8.588;2023-04-22T05:26:43;9.80;86.40
19847;DHT22;10084;50.518;8.588;2023-04-22T05:29:14;9.80;86.40
19847;DHT22;10084;50.518;8.588;2023-04-22T05:31:40;9.90;86.30
19847;DHT22;10084;50.518;8.588;2023-04-22T05:34:06;9.90;86.30
19847;DHT22;10084;50.518;8.588;2023-04-22T05:36:32;9.90;86.30
19847;DHT22;10084;50.518;8.588;2023-04-22T05:38:58;9.90;86.40
19847;DHT22;10084;50.518;8.588;2023-04-22T05:41:24;10.00;86.40
19847;DHT22;10084;50.518;8.588;2023-04-22T05:43:51;10.00;86.50
19847;DHT22;10084;50.518;8.588;2023-04-22T05:46:18;10.10;86.70
19847;DHT22;10084;50.518;8.588;2023-04-22T05:48:45;10.10;86.80
19847;DHT22;10084;50.518;8.588;2023-04-22T05:51:31;10.20;86.90
19847;DHT22;10084;50.518;8.588;2023-04-22T05:53:57;10.30;87.10
19847;DHT22;10084;50.518;8.588;2023-04-22T05:56:23;10.30;87.30
19847;DHT22;10084;50.518;8.588;2023-04-22T05:58:49;10.40;87.50
19847;DHT22;10084;50.518;8.588;2023-04-22T06:01:19;10.50;87.50
19847;DHT22;10084;50.518;8.588;2023-04-22T06:03:51;10.60;87.60
19847;DHT22;10084;50.518;8.588;2023-04-22T06:06:17;10.70;87.70
19847;DHT22;10084;50.518;8.588;2023-04-22T06:08:45;10.90;88.40
19847;DHT22;10084;50.518;8.588;2023-04-22T06:11:11;11.10;88.40
19847;DHT22;10084;50.518;8.588;2023-04-22T06:13:37;11.30;88.40
19847;DHT22;10084;50.518;8.588;2023-04-22T06:16:03;11.50;88.80
19847;DHT22;10084;50.518;8.588;2023-04-22T06:18:30;11.80;88.80
19847;DHT22;10084;50.518;8.588;2023-04-22T06:20:57;12.10;88.20
19847;DHT22;10084;50.518;8.588;2023-04-22T06:23:23;12.40;87.80
19847;DHT22;10084;50.518;8.588;2023-04-22T06:25:48;12.70;87.60
19847;DHT22;10084;50.518;8.588;2023-04-22T06:28:15;13.00;87.00
19847;DHT22;10084;50.518;8.588;2023-04-22T06:30:43;13.30;86.40
19847;DHT22;10084;50.518;8.588;2023-04-22T06:33:08;13.50;85.70
19847;DHT22;10084;50.518;8.588;2023-04-22T06:35:34;13.70;84.80
19847;DHT22;10084;50.518;8.588;2023-04-22T06:38:00;13.90;84.20
19847;DHT22;10084;50.518;8.588;2023-04-22T06:40:30;14.10;83.60
19847;DHT22;10084;50.518;8.588;2023-04-22T06:42:56;14.20;83.30
19847;DHT22;10084;50.518;8.588;2023-04-22T06:45:41;14.30;82.90
19847;DHT22;10084;50.518;8.588;2023-04-22T06:48:19;14.40;82.60
19847;DHT22;10084;50.518;8.588;2023-04-22T06:51:05;14.40;82.20
19847;DHT22;10084;50.518;8.588;2023-04-22T06:53:31;14.50;82.10
19847;DHT22;10084;50.518;8.588;2023-04-22T06:55:56;14.60;82.30
19847;DHT22;10084;50.518;8.588;2023-04-22T06:58:22;14.70;82.40
19847;DHT22;10084;50.518;8.588;2023-04-22T07:00:48;14.90;82.60
19847;DHT22;10084;50.518;8.588;2023-04-22T07:03:14;15.10;82.60
19847;DHT22;10084;50.518;8.588;2023-04-22T07:05:40;15.40;82.50
19847;DHT22;10084;50.518;8.588;2023-04-22T07:08:07;15.70;83.20
19847;DHT22;10084;50.518;8.588;2023-04-22T07:10:33;16.30;83.50
19847;DHT22;10084;50.518;8.588;2023-04-22T07:13:17;16.80;82.50
19847;DHT22;10084;50.518;8.588;2023-04-22T07:15:43;17.30;81.60
19847;DHT22;10084;50.518;8.588;2023-04-22T07:18:10;17.80;80.60
19847;DHT22;10084;50.518;8.588;2023-04-22T07:20:36;18.40;80.50
19847;DHT22;10084;50.518;8.588;2023-04-22T07:23:02;19.20;79.70
19847;DHT22;10084;50.518;8.588;2023-04-22T07:25:28;20.20;79.00
19847;DHT22;10084;50.518;8.588;2023-04-22T07:27:53;21.00;76.80
19847;DHT22;10084;50.518;8.588;2023-04-22T07:30:19;21.50;74.40
19847;DHT22;10084;50.518;8.588;2023-04-22T07:32:45;21.80;71.90
19847;DHT22;10084;50.518;8.588;2023-04-22T07:35:10;21.90;70.80
19847;DHT22;10084;50.518;8.588;2023-04-22T07:37:36;22.20;70.30
19847;DHT22;10084;50.518;8.588;2023-04-22T07:40:02;22.80;70.40
19847;DHT22;10084;50.518;8.588;2023-04-22T07:42:28;23.60;68.60
19847;DHT22;10084;50.518;8.588;2023-04-22T07:44:53;24.10;67.80
19847;DHT22;10084;50.518;8.588;2023-04-22T07:47:19;24.30;66.20
19847;DHT22;10084;50.518;8.588;2023-04-22T07:49:45;24.20;64.90
19847;DHT22;10084;50.518;8.588;2023-04-22T07:52:11;23.90;63.50
19847;DHT22;10084;50.518;8.588;2023-04-22T07:54:36;23.80;63.90
19847;DHT22;10084;50.518;8.588;2023-04-22T07:57:02;23.90;63.80
19847;DHT22;10084;50.518;8.588;2023-04-22T07:59:28;23.90;62.50
19847;DHT22;10084;50.518;8.588;2023-04-22T08:01:53;23.70;61.90
19847;DHT22;10084;50.518;8.588;2023-04-22T08:04:22;23.50;61.50
19847;DHT22;10084;50.518;8.588;2023-04-22T08:06:47;23.20;61.00
19847;DHT22;10084;50.518;8.588;2023-04-22T08:09:13;23.00;61.30
19847;DHT22;10084;50.518;8.588;2023-04-22T08:11:39;22.90;60.00
19847;DHT22;10084;50.518;8.588;2023-04-22T08:14:05;22.70;59.20
19847;DHT22;10084;50.518;8.588;2023-04-22T08:16:31;22.60;58.30
19847;DHT22;10084;50.518;8.588;2023-04-22T08:18:56;22.40;58.60
19847;DHT22;10084;50.518;8.588;2023-04-22T08:21:22;22.20;58.80
19847;DHT22;10084;50.518;8.588;2023-04-22T08:23:48;22.40;58.80
19847;DHT22;10084;50.518;8.588;2023-04-22T08:26:13;22.70;58.50
19847;DHT22;10084;50.518;8.588;2023-04-22T08:28:41;23.30;57.70
19847;DHT22;10084;50.518;8.588;2023-04-22T08:33:34;24.90;79.00
19847;DHT22;10084;50.518;8.588;2023-04-22T08:36:00;25.70;74.60
19847;DHT22;10084;50.518;8.588;2023-04-22T08:38:28;26.20;64.50
19847;DHT22;10084;50.518;8.588;2023-04-22T08:43:25;27.10;78.10
19847;DHT22;10084;50.518;8.588;2023-04-22T08:45:51;27.70;61.20
19847;DHT22;10084;50.518;8.588;2023-04-22T08:48:18;28.10;63.00
19847;DHT22;10084;50.518;8.588;2023-04-22T08:50:46;28.40;58.50
19847;DHT22;10084;50.518;8.588;2023-04-22T08:55:42;29.00;70.40
19847;DHT22;10084;50.518;8.588;2023-04-22T08:58:09;29.40;69.70
19847;DHT22;10084;50.518;8.588;2023-04-22T09:18:11;29.30;81.30
19847;DHT22;10084;50.518;8.588;2023-04-22T09:20:41;29.30;75.40
19847;DHT22;10084;50.518;8.588;2023-04-22T09:23:06;29.10;75.70
19847;DHT22;10084;50.518;8.588;2023-04-22T09:25:33;29.10;75.90
19847;DHT22;10084;50.518;8.588;2023-04-22T09:28:00;29.10;76.00
19847;DHT22;10084;50.518;8.588;2023-04-22T10:41:32;24.90;82.60
19847;DHT22;10084;50.518;8.588;2023-04-22T11:20:12;26.60;80.80
19847;DHT22;10084;50.518;8.588;2023-04-22T11:30:10;30.00;54.80
19847;DHT22;10084;50.518;8.588;2023-04-22T11:32:39;30.30;53.50
19847;DHT22;10084;50.518;8.588;2023-04-22T11:35:06;30.10;53.30
19847;DHT22;10084;50.518;8.588;2023-04-22T11:38:03;29.90;54.00
19847;DHT22;10084;50.518;8.588;2023-04-22T11:40:40;29.60;56.50
19847;DHT22;10084;50.518;8.588;2023-04-22T11:53:00;31.50;61.20
19847;DHT22;10084;50.518;8.588;2023-04-22T12:00:34;32.40;48.30
19847;DHT22;10084;50.518;8.588;2023-04-22T12:03:02;32.40;44.90
19847;DHT22;10084;50.518;8.588;2023-04-22T12:05:55;32.40;52.60
19847;DHT22;10084;50.518;8.588;2023-04-22T12:08:23;32.10;50.80
19847;DHT22;10084;50.518;8.588;2023-04-22T12:13:22;31.60;72.10
19847;DHT22;10084;50.518;8.588;2023-04-22T12:15:54;29.40;41.20
19847;DHT22;10084;50.518;8.588;2023-04-22T12:18:36;30.60;35.20
19847;DHT22;10084;50.518;8.588;2023-04-22T12:23:48;28.90;42.20
19847;DHT22;10084;50.518;8.588;2023-04-22T12:31:08;27.60;60.40
19847;DHT22;10084;50.518;8.588;2023-04-22T12:33:35;25.10;61.30
19847;DHT22;10084;50.518;8.588;2023-04-22T12:36:01;25.20;52.50
19847;DHT22;10084;50.518;8.588;2023-04-22T12:38:27;24.70;64.80
19847;DHT22;10084;50.518;8.588;2023-04-22T12:40:54;24.50;68.00
19847;DHT22;10084;50.518;8.588;2023-04-22T12:43:19;24.20;58.10
19847;DHT22;10084;50.518;8.588;2023-04-22T12:45:45;24.10;58.50
19847;DHT22;10084;50.518;8.588;2023-04-22T12:48:11;24.10;59.80
19847;DHT22;10084;50.518;8.588;2023-04-22T12:50:37;24.20;60.00
19847;DHT22;10084;50.518;8.588;2023-04-22T12:53:02;24.40;59.10
19847;DHT22;10084;50.518;8.588;2023-04-22T12:55:28;24.50;59.50
19847;DHT22;10084;50.518;8.588;2023-04-22T12:57:55;24.50;57.10
19847;DHT22;10084;50.518;8.588;2023-04-22T13:00:22;24.60;56.90
19847;DHT22;10084;50.518;8.588;2023-04-22T13:02:49;24.70;57.10
19847;DHT22;10084;50.518;8.588;2023-04-22T13:05:15;24.70;57.60
19847;DHT22;10084;50.518;8.588;2023-04-22T13:07:42;24.70;58.10
19847;DHT22;10084;50.518;8.588;2023-04-22T13:10:10;24.70;58.00
19847;DHT22;10084;50.518;8.588;2023-04-22T13:12:36;24.70;58.10
19847;DHT22;10084;50.518;8.588;2023-04-22T13:15:03;24.70;58.20
19847;DHT22;10084;50.518;8.588;2023-04-22T13:17:30;24.60;58.20
19847;DHT22;10084;50.518;8.588;2023-04-22T13:19:56;24.60;58.60
19847;DHT22;10084;50.518;8.588;2023-04-22T13:22:21;24.60;61.00
19847;DHT22;10084;50.518;8.588;2023-04-22T13:24:47;24.50;66.00
19847;DHT22;10084;50.518;8.588;2023-04-22T13:27:14;24.40;65.40
19847;DHT22;10084;50.518;8.588;2023-04-22T13:29:40;24.50;64.90
19847;DHT22;10084;50.518;8.588;2023-04-22T13:32:07;24.50;64.80
19847;DHT22;10084;50.518;8.588;2023-04-22T13:34:33;24.40;61.60
19847;DHT22;10084;50.518;8.588;2023-04-22T13:36:59;24.40;61.80
19847;DHT22;10084;50.518;8.588;2023-04-22T13:39:25;24.20;61.60
19847;DHT22;10084;50.518;8.588;2023-04-22T13:41:52;24.20;63.70
19847;DHT22;10084;50.518;8.588;2023-04-22T13:44:17;24.00;64.00
19847;DHT22;10084;50.518;8.588;2023-04-22T13:46:43;23.90;64.00
19847;DHT22;10084;50.518;8.588;2023-04-22T13:49:09;23.80;64.00
19847;DHT22;10084;50.518;8.588;2023-04-22T13:51:35;23.60;69.60
19847;DHT22;10084;50.518;8.588;2023-04-22T13:54:04;23.40;70.10
19847;DHT22;10084;50.518;8.588;2023-04-22T13:56:31;23.10;46.30
19847;DHT22;10084;50.518;8.588;2023-04-22T13:58:59;19.60;44.70
19847;DHT22;10084;50.518;8.588;2023-04-22T14:01:25;22.60;47.20
19847;DHT22;10084;50.518;8.588;2023-04-22T14:03:52;22.50;53.10
19847;DHT22;10084;50.518;8.588;2023-04-22T14:06:18;22.40;55.90
19847;DHT22;10084;50.518;8.588;2023-04-22T14:08:44;22.40;51.30
19847;DHT22;10084;50.518;8.588;2023-04-22T14:11:11;22.30;52.40
19847;DHT22;10084;50.518;8.588;2023-04-22T14:13:37;22.20;47.20
19847;DHT22;10084;50.518;8.588;2023-04-22T14:18:33;22.10;51.50
19847;DHT22;10084;50.518;8.588;2023-04-22T14:21:03;21.90;47.60
19847;DHT22;10084;50.518;8.588;2023-04-22T14:23:29;21.80;45.40
19847;DHT22;10084;50.518;8.588;2023-04-22T14:25:55;21.80;44.10
19847;DHT22;10084;50.518;8.588;2023-04-22T14:33:14;21.40;67.80
19847;DHT22;10084;50.518;8.588;2023-04-22T14:38:08;21.20;72.60
19847;DHT22;10084;50.518;8.588;2023-04-22T14:40:35;21.20;72.00
19847;DHT22;10084;50.518;8.588;2023-04-22T14:43:02;21.10;78.40
19847;DHT22;10084;50.518;8.588;2023-04-22T14:45:30;21.10;73.20
19847;DHT22;10084;50.518;8.588;2023-04-22T14:50:23;20.90;71.30
19847;DHT22;10084;50.518;8.588;2023-04-22T14:52:50;21.00;72.30
19847;DHT22;10084;50.518;8.588;2023-04-22T14:55:16;20.90;72.10
19847;DHT22;10084;50.518;8.588;2023-04-22T14:57:42;20.90;72.70
19847;DHT22;10084;50.518;8.588;2023-04-22T15:00:08;20.90;73.60
19847;DHT22;10084;50.518;8.588;2023-04-22T15:02:35;20.90;74.60
19847;DHT22;10084;50.518;8.588;2023-04-22T15:05:01;20.80;73.00
19847;DHT22;10084;50.518;8.588;2023-04-22T15:07:27;20.80;73.00
19847;DHT22;10084;50.518;8.588;2023-04-22T15:09:52;20.70;73.10
19847;DHT22;10084;50.518;8.588;2023-04-22T15:12:18;20.70;73.80
19847;DHT22;10084;50.518;8.588;2023-04-22T15:14:44;20.60;75.00
19847;DHT22;10084;50.518;8.588;2023-04-22T15:17:10;20.60;72.20
19847;DHT22;10084;50.518;8.588;2023-04-22T15:19:37;20.60;71.40
19847;DHT22;10084;50.518;8.588;2023-04-22T15:22:03;20.50;73.10
19847;DHT22;10084;50.518;8.588;2023-04-22T15:24:29;20.50;71.30
19847;DHT22;10084;50.518;8.588;2023-04-22T15:36:43;20.20;78.40
19847;DHT22;10084;50.518;8.588;2023-04-22T15:39:10;20.20;76.20
19847;DHT22;10084;50.518;8.588;2023-04-22T15:41:36;20.00;77.30
19847;DHT22;10084;50.518;8.588;2023-04-22T15:44:02;20.00;61.40
19847;DHT22;10084;50.518;8.588;2023-04-22T15:46:29;20.10;61.20
19847;DHT22;10084;50.518;8.588;2023-04-22T15:48:57;20.10;61.00
19847;DHT22;10084;50.518;8.588;2023-04-22T15:51:23;20.10;60.90
19847;DHT22;10084;50.518;8.588;2023-04-22T15:53:50;20.10;60.80
19847;DHT22;10084;50.518;8.588;2023-04-22T15:56:16;20.20;60.70
19847;DHT22;10084;50.518;8.588;2023-04-22T15:58:42;20.20;60.70
19847;DHT22;10084;50.518;8.588;2023-04-22T16:01:07;20.30;60.70
19847;DHT22;10084;50.518;8.588;2023-04-22T16:03:33;20.40;60.80
19847;DHT22;10084;50.518;8.588;2023-04-22T16:06:02;20.50;60.80
19847;DHT22;10084;50.518;8.588;2023-04-22T16:08:28;20.50;60.70
19847;DHT22;10084;50.518;8.588;2023-04-22T16:10:54;20.60;60.60
19847;DHT22;10084;50.518;8.588;2023-04-22T16:13:19;20.60;60.50
19847;DHT22;10084;50.518;8.588;2023-04-22T16:15:45;20.60;60.10
19847;DHT22;10084;50.518;8.588;2023-04-22T16:18:12;20.60;60.70
19847;DHT22;10084;50.518;8.588;2023-04-22T16:20:38;20.60;59.80
19847;DHT22;10084;50.518;8.588;2023-04-22T16:23:04;20.60;60.50
19847;DHT22;10084;50.518;8.588;2023-04-22T16:25:30;20.60;59.80
19847;DHT22;10084;50.518;8.588;2023-04-22T16:27:56;20.60;59.80
19847;DHT22;10084;50.518;8.588;2023-04-22T16:30:22;20.50;59.80
19847;DHT22;10084;50.518;8.588;2023-04-22T16:32:48;20.50;59.80
19847;DHT22;10084;50.518;8.588;2023-04-22T16:35:14;20.50;59.80
19847;DHT22;10084;50.518;8.588;2023-04-22T16:37:39;20.50;59.90
19847;DHT22;10084;50.518;8.588;2023-04-22T16:40:06;20.50;59.90
19847;DHT22;10084;50.518;8.588;2023-04-22T16:42:32;20.50;59.90
19847;DHT22;10084;50.518;8.588;2023-04-22T16:44:58;20.50;59.90
19847;DHT22;10084;50.518;8.588;2023-04-22T16:47:24;20.50;59.90
19847;DHT22;10084;50.518;8.588;2023-04-22T16:49:51;20.50;59.90
19847;DHT22;10084;50.518;8.588;2023-04-22T16:52:17;20.50;59.90
19847;DHT22;10084;50.518;8.588;2023-04-22T16:54:43;20.40;59.90
19847;DHT22;10084;50.518;8.588;2023-04-22T16:57:10;20.40;59.90
19847;DHT22;10084;50.518;8.588;2023-04-22T16:59:37;20.40;60.00
19847;DHT22;10084;50.518;8.588;2023-04-22T17:02:03;20.30;60.00
19847;DHT22;10084;50.518;8.588;2023-04-22T17:04:29;20.30;60.10
19847;DHT22;10084;50.518;8.588;2023-04-22T17:06:54;20.30;60.20
19847;DHT22;10084;50.518;8.588;2023-04-22T17:09:20;20.20;60.40
19847;DHT22;10084;50.518;8.588;2023-04-22T17:11:46;20.10;60.70
19847;DHT22;10084;50.518;8.588;2023-04-22T17:14:12;20.10;63.00
19847;DHT22;10084;50.518;8.588;2023-04-22T17:16:38;20.00;69.40
19847;DHT22;10084;50.518;8.588;2023-04-22T17:19:04;19.90;71.90
19847;DHT22;10084;50.518;8.588;2023-04-22T17:21:32;19.80;85.90
19847;DHT22;10084;50.518;8.588;2023-04-22T17:24:01;19.80;77.50
19847;DHT22;10084;50.518;8.588;2023-04-22T17:31:22;19.10;67.70
19847;DHT22;10084;50.518;8.588;2023-04-22T17:33:49;19.50;68.50
19847;DHT22;10084;50.518;8.588;2023-04-22T17:38:42;19.10;67.80
19847;DHT22;10084;50.518;8.588;2023-04-22T17:43:34;19.10;64.40
19847;DHT22;10084;50.518;8.588;2023-04-22T17:46:00;19.00;63.80
19847;DHT22;10084;50.518;8.588;2023-04-22T17:48:26;19.00;63.00
19847;DHT22;10084;50.518;8.588;2023-04-22T17:50:52;18.90;60.10
19847;DHT22;10084;50.518;8.588;2023-04-22T17:53:17;18.90;60.10
19847;DHT22;10084;50.518;8.588;2023-04-22T17:55:43;18.80;53.00
19847;DHT22;10084;50.518;8.588;2023-04-22T17:58:09;18.70;52.30
19847;DHT22;10084;50.518;8.588;2023-04-22T18:00:35;18.70;52.30
19847;DHT22;10084;50.518;8.588;2023-04-22T18:03:03;18.60;52.40
19847;DHT22;10084;50.518;8.588;2023-04-22T18:05:29;18.60;52.60
19847;DHT22;10084;50.518;8.588;2023-04-22T18:07:54;18.60;52.60
19847;DHT22;10084;50.518;8.588;2023-04-22T18:10:25;18.50;52.70
19847;DHT22;10084;50.518;8.588;2023-04-22T18:12:51;18.50;52.90
19847;DHT22;10084;50.518;8.588;2023-04-22T18:15:16;18.50;53.10
19847;DHT22;10084;50.518;8.588;2023-04-22T18:17:44;18.40;53.20
19847;DHT22;10084;50.518;8.588;2023-04-22T18:20:10;18.40;53.40
19847;DHT22;10084;50.518;8.588;2023-04-22T18:22:39;18.40;53.90
19847;DHT22;10084;50.518;8.588;2023-04-22T18:25:05;18.30;54.70
19847;DHT22;10084;50.518;8.588;2023-04-22T18:27:31;18.30;55.30
19847;DHT22;10084;50.518;8.588;2023-04-22T18:29:56;18.30;55.90
19847;DHT22;10084;50.518;8.588;2023-04-22T18:32:22;18.30;56.90
19847;DHT22;10084;50.518;8.588;2023-04-22T18:34:48;18.20;58.70
19847;DHT22;10084;50.518;8.588;2023-04-22T18:37:14;18.20;58.60
19847;DHT22;10084;50.518;8.588;2023-04-22T18:39:40;18.10;58.70
19847;DHT22;10084;50.518;8.588;2023-04-22T18:42:05;18.10;57.10
19847;DHT22;10084;50.518;8.588;2023-04-22T18:44:31;18.10;57.20
19847;DHT22;10084;50.518;8.588;2023-04-22T18:46:57;18.00;57.50